Time;durP1;ratioP1;P1;durP2;ratioP2;P2;SDS_P1;SDS_P2;PMS_P1;PMS_P2;Temp;Humidity;BMP_temperature;BMP_pressure;BME280_temperature;BME280_humidity;BME280_pressure;Samples;Min_cycle;Max_cycle;Signal;HPM_P1;HPM_P2
2021/10/10 00:02:38;;;;;;;18.42;6.72;;;9.10;99.90;;;;;;20803079;28;20469;-44
2021/10/10 00:12:40;;;;;;;14.93;7.80;;;9.10;99.90;;;;;;20794486;28;20041;-44
2021/10/10 00:22:41;;;;;;;14.20;6.90;;;8.90;99.90;;;;;;20798806;28;20505;-44
2021/10/10 00:32:43;;;;;;;18.27;7.65;;;9.00;99.90;;;;;;20783148;28;20052;-45
2021/10/10 00:42:44;;;;;;;20.40;7.30;;;8.80;99.90;;;;;;20785399;28;20022;-44
2021/10/10 00:52:45;;;;;;;17.23;6.53;;;8.70;99.90;;;;;;20784446;28;20056;-44
2021/10/10 01:02:46;;;;;;;14.43;7.40;;;8.60;99.90;;;;;;20793490;28;20495;-45
2021/10/10 01:12:49;;;;;;;13.40;6.47;;;8.50;99.90;;;;;;20819850;28;20442;-44
2021/10/10 01:22:50;;;;;;;16.30;7.35;;;8.50;99.90;;;;;;20814630;28;20374;-44
2021/10/10 01:32:56;;;;;;;15.18;6.47;;;8.50;99.90;;;;;;20816345;28;20480;-44
2021/10/10 01:42:57;;;;;;;14.77;6.80;;;8.30;99.90;;;;;;20800844;28;20048;-44
2021/10/10 01:52:58;;;;;;;21.25;8.13;;;8.30;99.90;;;;;;20785364;28;20049;-44
2021/10/10 02:03:00;;;;;;;19.60;8.18;;;8.30;99.90;;;;;;20793962;28;20042;-44
2021/10/10 02:13:01;;;;;;;16.92;7.53;;;8.20;99.90;;;;;;20793239;28;20053;-44
2021/10/10 02:23:02;;;;;;;17.25;6.90;;;8.10;99.90;;;;;;20806686;28;20038;-44
2021/10/10 02:53:25;;;;;;;15.70;6.00;;;7.90;99.90;;;;;;21429730;23;20674;-44
2021/10/10 03:03:26;;;;;;;13.80;7.05;;;7.80;99.90;;;;;;20699458;28;20046;-44
2021/10/10 03:13:27;;;;;;;13.35;5.95;;;7.80;99.90;;;;;;20696479;28;20045;-44
2021/10/10 03:23:29;;;;;;;14.77;5.90;;;7.70;99.90;;;;;;20712044;28;20048;-44
2021/10/10 03:33:30;;;;;;;14.95;7.15;;;7.60;99.90;;;;;;20737608;28;20046;-44
2021/10/10 03:43:32;;;;;;;15.25;6.07;;;7.70;99.90;;;;;;20760395;28;20051;-44
2021/10/10 04:03:54;;;;;;;11.15;5.45;;;7.60;99.90;;;;;;20692882;28;21565;-44
2021/10/10 04:13:55;;;;;;;14.70;6.20;;;7.30;99.90;;;;;;20700276;28;20053;-44
2021/10/10 04:23:56;;;;;;;11.75;5.15;;;7.20;99.90;;;;;;20692705;28;20046;-44
2021/10/10 04:33:57;;;;;;;10.90;5.85;;;7.30;99.90;;;;;;20722992;28;20057;-44
2021/10/10 04:43:59;;;;;;;14.75;6.35;;;7.30;99.90;;;;;;20751572;28;20037;-44
2021/10/10 04:54:00;;;;;;;12.55;5.28;;;7.20;99.90;;;;;;20760404;28;20053;-44
2021/10/10 05:04:01;;;;;;;10.73;4.53;;;7.20;99.90;;;;;;20766776;28;20128;-44
2021/10/10 05:14:02;;;;;;;10.07;4.65;;;7.20;99.90;;;;;;20762751;28;20045;-44
2021/10/10 05:24:04;;;;;;;9.38;5.18;;;7.20;99.90;;;;;;20712409;28;20029;-44
2021/10/10 05:34:05;;;;;;;12.65;4.90;;;7.20;99.90;;;;;;20704662;28;20057;-44
2021/10/10 05:44:06;;;;;;;11.63;4.82;;;7.20;99.90;;;;;;20724501;28;20046;-44
2021/10/10 05:54:10;;;;;;;9.57;3.92;;;7.20;99.90;;;;;;20757355;28;20052;-44
2021/10/10 06:04:11;;;;;;;9.75;4.75;;;7.10;99.90;;;;;;20768543;28;20055;-44
2021/10/10 06:14:13;;;;;;;9.27;4.65;;;7.30;99.90;;;;;;20763997;28;20406;-44
2021/10/10 06:24:14;;;;;;;11.23;5.05;;;7.40;99.90;;;;;;20747152;28;20494;-44
2021/10/10 06:34:15;;;;;;;12.05;5.13;;;7.60;99.90;;;;;;20696198;28;20486;-44
2021/10/10 06:44:17;;;;;;;10.88;4.78;;;7.60;99.90;;;;;;20716416;28;20038;-44
2021/10/10 06:54:18;;;;;;;10.55;5.05;;;7.70;99.90;;;;;;20658717;28;20038;-44
2021/10/10 07:04:19;;;;;;;9.98;5.32;;;7.70;99.90;;;;;;20742334;28;20050;-44
2021/10/10 07:14:21;;;;;;;13.95;6.40;;;7.90;99.90;;;;;;20744134;28;20080;-44
2021/10/10 07:34:42;;;;;;;15.77;6.85;;;8.30;99.90;;;;;;20749298;28;20046;-44
2021/10/10 07:44:49;;;;;;;11.10;5.43;;;8.60;99.90;;;;;;20701951;28;20057;-44
2021/10/10 07:54:50;;;;;;;14.75;5.70;;;8.90;99.90;;;;;;20681700;28;20054;-44
2021/10/10 08:04:51;;;;;;;12.05;5.20;;;9.20;99.90;;;;;;20682659;28;20429;-44
2021/10/10 08:14:52;;;;;;;13.60;5.57;;;9.60;99.90;;;;;;20730931;28;20058;-44
2021/10/10 08:24:53;;;;;;;10.80;4.50;;;9.80;99.90;;;;;;20737259;28;20616;-44
2021/10/10 08:34:54;;;;;;;7.65;3.67;;;10.10;99.90;;;;;;20743899;28;20071;-44
2021/10/10 08:45:19;;;;;;;26.38;10.48;;;10.30;99.90;;;;;;20731398;28;20506;-44
2021/10/10 08:55:20;;;;;;;26.27;10.65;;;10.80;99.90;;;;;;20706652;28;20038;-44
2021/10/10 09:05:21;;;;;;;21.73;9.80;;;11.10;99.90;;;;;;20691794;28;20045;-44
2021/10/10 09:15:24;;;;;;;17.30;8.02;;;11.20;99.90;;;;;;20679158;28;20057;-44
2021/10/10 09:25:25;;;;;;;30.73;10.30;;;11.10;99.90;;;;;;20702753;28;20403;-44
2021/10/10 09:35:30;;;;;;;23.17;10.40;;;11.30;99.90;;;;;;20758213;28;20456;-44
2021/10/10 09:55:35;;;;;;;32.65;11.98;;;12.10;99.90;;;;;;20750387;28;20580;-44
2021/10/10 10:05:38;;;;;;;29.25;10.13;;;12.50;99.90;;;;;;20734243;28;20049;-44
2021/10/10 10:15:39;;;;;;;34.30;10.38;;;12.90;99.90;;;;;;20705810;28;20034;-45
2021/10/10 10:25:40;;;;;;;24.90;10.85;;;13.30;99.90;;;;;;20709347;28;20200;-45
2021/10/10 10:35:44;;;;;;;23.67;9.80;;;13.70;99.90;;;;;;20723238;28;20033;-44
2021/10/10 10:45:48;;;;;;;23.92;9.82;;;14.00;99.90;;;;;;20750198;28;20042;-44
2021/10/10 10:55:55;;;;;;;32.40;11.15;;;14.10;99.90;;;;;;20759385;28;20041;-44
2021/10/10 11:05:57;;;;;;;25.35;9.48;;;14.20;99.90;;;;;;20741969;28;20496;-44
2021/10/10 11:16:41;;;;;;;26.50;10.02;;;14.70;99.90;;;;;;20708752;28;20050;-45
2021/10/10 11:26:42;;;;;;;28.15;9.07;;;15.20;99.90;;;;;;20621172;28;20053;-45
2021/10/10 11:36:54;;;;;;;24.13;9.30;;;15.40;99.90;;;;;;20687062;28;20419;-45
2021/10/10 11:46:59;;;;;;;21.95;8.85;;;15.80;99.90;;;;;;20702390;28;21286;-45
2021/10/10 11:57:00;;;;;;;24.33;10.32;;;16.00;99.90;;;;;;20745803;28;20073;-45
2021/10/10 12:07:02;;;;;;;18.42;8.38;;;17.00;99.90;;;;;;20729367;28;20495;-45
2021/10/10 12:17:04;;;;;;;25.55;9.30;;;17.90;99.90;;;;;;20735085;28;20526;-45
2021/10/10 12:27:05;;;;;;;23.00;9.43;;;17.50;99.90;;;;;;20708293;28;20137;-45
2021/10/10 12:37:22;;;;;;;20.80;8.95;;;16.50;99.90;;;;;;20681974;28;20763;-45
2021/10/10 12:47:30;;;;;;;19.20;8.87;;;15.90;99.90;;;;;;20687932;28;20038;-44
2021/10/10 12:57:31;;;;;;;23.15;9.18;;;16.20;99.90;;;;;;20703172;28;20457;-45
2021/10/10 13:07:33;;;;;;;18.90;7.82;;;16.40;99.90;;;;;;20738062;28;20041;-45
2021/10/10 13:17:35;;;;;;;21.02;7.88;;;16.40;99.90;;;;;;20747810;28;20073;-45
2021/10/10 13:27:36;;;;;;;19.25;7.63;;;16.10;99.90;;;;;;20760015;28;20048;-45
2021/10/10 13:37:37;;;;;;;18.52;7.75;;;15.70;99.90;;;;;;20735191;28;20339;-45
2021/10/10 13:47:39;;;;;;;21.85;8.50;;;15.70;99.90;;;;;;20684572;28;20037;-45
2021/10/10 13:57:40;;;;;;;14.55;5.95;;;15.80;99.90;;;;;;20675961;28;20057;-45
2021/10/10 14:07:41;;;;;;;12.38;5.57;;;16.20;99.90;;;;;;20721989;28;20057;-45
2021/10/10 14:17:42;;;;;;;9.75;4.47;;;17.90;99.90;;;;;;20744453;28;20069;-45
2021/10/10 14:27:44;;;;;;;7.15;3.47;;;18.70;99.90;;;;;;20741318;28;20033;-45
2021/10/10 14:37:45;;;;;;;10.95;4.50;;;18.80;99.90;;;;;;20744589;28;20076;-45
2021/10/10 14:48:00;;;;;;;8.23;3.65;;;18.30;99.90;;;;;;20738005;28;20511;-45
2021/10/10 14:58:02;;;;;;;9.10;4.70;;;17.10;99.90;;;;;;20686520;28;20054;-45
2021/10/10 15:08:03;;;;;;;11.57;4.80;;;16.60;99.90;;;;;;20709533;28;20193;-45
2021/10/10 15:18:04;;;;;;;10.95;4.75;;;16.30;99.90;;;;;;20709247;28;20056;-45
2021/10/10 15:28:05;;;;;;;9.45;4.68;;;16.20;99.90;;;;;;20738543;28;20045;-45
2021/10/10 15:38:07;;;;;;;11.10;4.15;;;16.10;99.90;;;;;;20756775;28;20050;-45
2021/10/10 15:48:08;;;;;;;10.85;4.18;;;16.00;99.90;;;;;;20752677;28;20098;-45
2021/10/10 15:58:09;;;;;;;17.75;5.90;;;15.70;99.90;;;;;;20741546;28;20050;-45
2021/10/10 16:08:10;;;;;;;11.73;4.18;;;15.60;99.90;;;;;;20715149;28;20687;-45
2021/10/10 16:18:12;;;;;;;12.07;4.78;;;15.60;99.90;;;;;;20710765;28;20045;-45
2021/10/10 16:28:13;;;;;;;11.50;4.18;;;15.40;99.90;;;;;;20705918;28;20495;-45
2021/10/10 16:48:34;;;;;;;15.20;5.95;;;15.00;99.90;;;;;;20747811;28;20495;-45
2021/10/10 16:58:36;;;;;;;11.73;4.43;;;14.70;99.90;;;;;;20765098;28;20575;-45
2021/10/10 17:08:37;;;;;;;12.40;5.28;;;14.30;99.90;;;;;;20751291;28;20118;-45
2021/10/10 17:18:39;;;;;;;11.57;4.80;;;14.20;99.90;;;;;;20722887;28;20050;-45
2021/10/10 17:28:44;;;;;;;10.95;4.78;;;14.30;99.90;;;;;;20718909;28;20042;-45
2021/10/10 17:38:45;;;;;;;10.30;5.05;;;14.40;99.90;;;;;;20724351;28;20410;-45
2021/10/10 17:48:47;;;;;;;10.27;4.15;;;14.40;99.90;;;;;;20744749;28;20037;-45
2021/10/10 18:19:15;;;;;;;13.10;4.82;;;14.30;99.90;;;;;;20765755;28;20131;-45
2021/10/10 18:29:16;;;;;;;13.27;5.72;;;14.30;99.90;;;;;;20719819;28;20225;-45
2021/10/10 18:39:17;;;;;;;18.73;7.25;;;14.30;99.90;;;;;;20714560;28;20427;-45
2021/10/10 18:49:18;;;;;;;19.95;8.32;;;14.20;99.90;;;;;;20729331;28;20054;-45
2021/10/10 18:59:20;;;;;;;21.00;8.60;;;14.20;99.90;;;;;;20742286;28;20054;-45
2021/10/10 19:09:21;;;;;;;20.33;8.63;;;14.10;99.90;;;;;;20773027;28;20033;-45
2021/10/10 19:19:22;;;;;;;21.05;7.57;;;14.00;99.90;;;;;;20739863;28;20133;-45
2021/10/10 19:29:23;;;;;;;21.75;7.65;;;13.90;99.90;;;;;;20757077;28;20030;-45
2021/10/10 19:39:24;;;;;;;17.02;7.13;;;13.70;99.90;;;;;;20732210;28;20052;-45
2021/10/10 19:49:25;;;;;;;22.77;8.93;;;13.70;99.90;;;;;;20714215;28;21873;-45
2021/10/10 19:59:27;;;;;;;27.63;7.50;;;13.80;99.90;;;;;;20704948;28;20522;-45
2021/10/10 20:09:28;;;;;;;19.45;7.45;;;13.70;99.90;;;;;;20750406;28;20042;-45
2021/10/10 20:19:30;;;;;;;20.05;6.45;;;13.80;99.90;;;;;;20752961;28;20052;-45
2021/10/10 20:29:31;;;;;;;9.68;2.90;;;13.90;99.90;;;;;;20749090;28;20041;-45
2021/10/10 20:39:32;;;;;;;2.58;0.80;;;13.90;99.90;;;;;;20771936;28;20050;-45
2021/10/10 20:49:34;;;;;;;0.47;0.20;;;14.00;99.90;;;;;;20731556;28;20566;-45
2021/10/10 20:59:35;;;;;;;1.05;0.30;;;14.00;99.90;;;;;;20707735;28;20050;-45
2021/10/10 21:09:36;;;;;;;2.35;0.65;;;13.90;99.90;;;;;;20701847;28;20521;-45
2021/10/10 21:19:37;;;;;;;1.77;0.30;;;13.90;99.90;;;;;;20723286;28;20046;-46
2021/10/10 21:29:40;;;;;;;0.70;0.30;;;13.90;99.90;;;;;;20743712;28;20032;-45
2021/10/10 21:39:41;;;;;;;3.72;0.50;;;13.90;99.90;;;;;;20764238;28;20136;-45
2021/10/10 21:49:42;;;;;;;1.27;0.38;;;13.90;99.90;;;;;;20769627;28;20109;-45
2021/10/10 21:59:43;;;;;;;1.92;0.60;;;13.90;99.90;;;;;;20738961;28;20088;-45
2021/10/10 22:09:45;;;;;;;2.97;0.50;;;13.90;99.90;;;;;;20724001;28;20041;-45
2021/10/10 22:19:46;;;;;;;1.63;0.40;;;13.80;99.90;;;;;;20706399;28;20050;-45
2021/10/10 22:40:08;;;;;;;1.98;0.50;;;13.70;99.90;;;;;;20755196;28;22308;-45
2021/10/10 22:50:09;;;;;;;1.65;0.35;;;13.60;99.90;;;;;;20753172;28;20521;-45
2021/10/10 23:00:11;;;;;;;0.93;0.50;;;13.50;99.90;;;;;;20738942;28;20054;-45
2021/10/10 23:10:15;;;;;;;1.40;0.70;;;13.30;99.90;;;;;;20727218;28;20046;-45
2021/10/10 23:20:17;;;;;;;1.55;0.60;;;13.10;99.90;;;;;;20702720;28;20321;-45
2021/10/10 23:30:18;;;;;;;2.50;1.10;;;12.90;99.90;;;;;;20707354;28;20068;-45
2021/10/10 23:40:19;;;;;;;4.43;0.68;;;12.70;99.90;;;;;;20724794;28;20045;-45
2021/10/10 23:50:21;;;;;;;1.33;0.43;;;12.50;99.90;;;;;;20767963;28;20060;-45
